Time;durP1;ratioP1;P1;durP2;ratioP2;P2;SDS_P1;SDS_P2;PMS_P1;PMS_P2;Temp;Humidity;BMP_temperature;BMP_pressure;BME280_temperature;BME280_humidity;BME280_pressure;Samples;Min_cycle;Max_cycle;Signal;HPM_P1;HPM_P2
2023/02/13 00:00:35;;;;;;;35.60;24.50;;;7.50;99.90;;;;;;4993441;28;20169;-59
2023/02/13 00:03:00;;;;;;;37.67;26.33;;;7.70;99.90;;;;;;4993571;28;20717;-60
2023/02/13 00:05:26;;;;;;;50.43;30.20;;;7.50;99.90;;;;;;4993772;28;20280;-60
2023/02/13 00:07:52;;;;;;;37.03;24.90;;;;;;;;;;4992584;28;20243;-59
2023/02/13 00:10:18;;;;;;;68.63;36.37;;;;;;;;;;4993794;28;20177;-58
2023/02/13 00:12:43;;;;;;;54.43;31.30;;;7.60;99.90;;;;;;4993481;28;20711;-59
2023/02/13 00:15:09;;;;;;;56.03;32.20;;;7.10;99.90;;;;;;4994167;28;20173;-59
2023/02/13 00:17:35;;;;;;;93.37;43.17;;;7.20;99.90;;;;;;4992936;28;20212;-59
2023/02/13 00:20:01;;;;;;;72.60;38.13;;;7.40;99.90;;;;;;4993340;28;20189;-59
2023/02/13 00:22:27;;;;;;;73.73;38.70;;;;;;;;;;4992189;28;20219;-59
2023/02/13 00:24:53;;;;;;;72.97;37.47;;;;;;;;;;4993040;28;20208;-60
2023/02/13 00:27:19;;;;;;;68.77;36.50;;;;;;;;;;4992973;28;20201;-58
2023/02/13 00:29:44;;;;;;;73.60;38.43;;;7.20;99.90;;;;;;4992049;28;20192;-60
2023/02/13 00:32:10;;;;;;;79.97;40.20;;;7.20;99.90;;;;;;4992696;28;20185;-60
2023/02/13 00:34:36;;;;;;;76.93;37.87;;;7.40;99.90;;;;;;4993217;28;20243;-59
2023/02/13 00:37:02;;;;;;;69.67;35.80;;;;;;;;;;4992242;28;20228;-59
2023/02/13 00:39:28;;;;;;;70.23;35.97;;;;;;;;;;4991806;28;20196;-58
2023/02/13 00:41:53;;;;;;;77.83;39.10;;;;;;;;;;4992556;28;20270;-59
2023/02/13 00:44:19;;;;;;;73.07;38.17;;;;;;;;;;4990986;28;20181;-60
2023/02/13 00:46:45;;;;;;;71.40;37.50;;;;;;;;;;4992177;28;20204;-59
2023/02/13 00:49:11;;;;;;;74.63;38.27;;;7.30;99.90;;;;;;4992842;28;20205;-58
2023/02/13 00:51:36;;;;;;;73.57;36.33;;;7.10;99.90;;;;;;4992678;28;20192;-57
2023/02/13 00:54:02;;;;;;;72.23;35.77;;;;;;;;;;4992583;28;20181;-60
2023/02/13 00:56:28;;;;;;;75.80;38.07;;;7.40;99.90;;;;;;4992581;28;20220;-58
2023/02/13 00:58:54;;;;;;;70.93;36.67;;;;;;;;;;5022021;23;20221;-54
2023/02/13 01:01:20;;;;;;;77.23;38.80;;;;;;;;;;4990729;28;20197;-52
2023/02/13 01:03:45;;;;;;;66.23;35.07;;;;;;;;;;4991777;28;20264;-53
2023/02/13 01:06:11;;;;;;;71.23;37.03;;;;;;;;;;4991261;28;20232;-55
2023/02/13 01:08:41;;;;;;;67.07;34.77;;;;;;;;;;4991722;28;20648;-55
2023/02/13 01:11:07;;;;;;;64.50;34.60;;;7.40;99.90;;;;;;4992102;28;20181;-52
2023/02/13 01:13:33;;;;;;;62.73;34.20;;;;;;;;;;4992940;28;20649;-57
2023/02/13 01:15:59;;;;;;;65.03;35.17;;;;;;;;;;4991811;28;20181;-53
2023/02/13 01:18:25;;;;;;;66.17;34.73;;;;;;;;;;4991894;28;20201;-57
2023/02/13 01:20:56;;;;;;;71.63;35.07;;;;;;;;;;4992058;28;20587;-54
2023/02/13 01:23:22;;;;;;;63.23;35.13;;;7.50;99.90;;;;;;4992655;28;20177;-56
2023/02/13 01:25:50;;;;;;;58.37;33.37;;;;;;;;;;4991976;28;20546;-57
2023/02/13 01:28:16;;;;;;;62.20;34.00;;;;;;;;;;4992551;28;20181;-58
2023/02/13 01:30:42;;;;;;;56.43;32.33;;;7.40;99.90;;;;;;4991594;28;20181;-56
2023/02/13 01:33:12;;;;;;;58.10;32.93;;;7.30;99.90;;;;;;4991711;28;20820;-53
2023/02/13 01:35:40;;;;;;;58.23;32.00;;;7.60;99.90;;;;;;4991824;28;20599;-55
2023/02/13 01:38:06;;;;;;;62.40;34.23;;;7.60;99.90;;;;;;4991631;28;20209;-53
2023/02/13 01:40:31;;;;;;;61.40;32.67;;;7.60;99.90;;;;;;4992025;28;20239;-55
2023/02/13 01:42:57;;;;;;;58.10;32.87;;;7.40;99.90;;;;;;4992191;28;20676;-53
2023/02/13 01:45:29;;;;;;;56.80;33.07;;;7.50;99.90;;;;;;4992046;28;20204;-55
2023/02/13 01:48:17;;;;;;;57.47;34.03;;;;;;;;;;4983460;28;20177;-55
2023/02/13 01:50:47;;;;;;;55.40;34.23;;;;;;;;;;4991094;28;20184;-52
2023/02/13 01:53:19;;;;;;;53.47;30.33;;;;;;;;;;4991478;28;20181;-53
2023/02/13 01:56:08;;;;;;;50.03;29.67;;;;;;;;;;4991712;28;20191;-55
2023/02/13 01:58:36;;;;;;;47.03;29.50;;;7.20;99.90;;;;;;4986340;28;20231;-55
2023/02/13 02:01:02;;;;;;;47.17;30.10;;;;;;;;;;4991478;28;20644;-54
2023/02/13 02:03:32;;;;;;;46.07;29.40;;;;;;;;;;4991771;28;20173;-55
2023/02/13 02:06:00;;;;;;;44.03;27.40;;;7.30;99.90;;;;;;4991336;28;20652;-52
2023/02/13 02:08:26;;;;;;;47.67;29.00;;;;;;;;;;4985394;28;20224;-54
2023/02/13 02:10:54;;;;;;;42.23;27.73;;;7.30;99.90;;;;;;4989810;28;20173;-57
2023/02/13 02:13:21;;;;;;;41.37;27.07;;;;;;;;;;4991527;28;20192;-57
2023/02/13 02:15:48;;;;;;;38.70;26.00;;;7.40;99.90;;;;;;4991661;28;20185;-52
2023/02/13 02:18:19;;;;;;;47.07;28.63;;;7.60;99.90;;;;;;4990427;28;20185;-57
2023/02/13 02:21:00;;;;;;;39.43;26.83;;;;;;;;;;4991226;28;20199;-53
2023/02/13 02:23:48;;;;;;;37.30;25.20;;;7.40;99.90;;;;;;4988801;28;20189;-52
2023/02/13 02:26:22;;;;;;;38.97;26.63;;;;;;;;;;4990037;28;20180;-54
2023/02/13 02:29:07;;;;;;;37.07;24.27;;;;;;;;;;4990754;28;20287;-54
2023/02/13 02:31:52;;;;;;;37.03;24.63;;;7.40;99.90;;;;;;4991075;28;20196;-58
2023/02/13 02:34:18;;;;;;;40.00;26.37;;;;;;;;;;4984800;28;20256;-56
2023/02/13 02:36:53;;;;;;;34.50;24.33;;;;;;;;;;4990902;28;20260;-53
2023/02/13 02:39:30;;;;;;;38.67;25.73;;;;;;;;;;4991212;28;20204;-54
2023/02/13 02:42:06;;;;;;;37.70;24.50;;;7.30;99.90;;;;;;4990033;28;20200;-54
2023/02/13 02:44:44;;;;;;;36.30;24.60;;;7.50;99.90;;;;;;4988834;28;20189;-57
2023/02/13 02:50:14;;;;;;;34.17;24.53;;;;;;;;;;4991278;28;20200;-54
2023/02/13 02:52:43;;;;;;;43.43;27.53;;;;;;;;;;4991521;28;20185;-55
2023/02/13 02:55:14;;;;;;;45.87;27.77;;;;;;;;;;4991449;28;20219;-53
2023/02/13 03:06:33;;;;;;;48.33;31.63;;;7.30;99.90;;;;;;4990396;28;20223;-53
2023/02/13 03:14:37;;;;;;;49.63;29.30;;;7.20;99.90;;;;;;4990504;28;20671;-53
2023/02/13 03:23:16;;;;;;;54.97;30.20;;;7.10;99.90;;;;;;4991232;28;20240;-53
2023/02/13 03:25:42;;;;;;;51.90;29.57;;;;;;;;;;4990509;28;20181;-57
2023/02/13 03:31:12;;;;;;;53.43;30.53;;;;;;;;;;4993544;28;20327;-52
2023/02/13 03:33:56;;;;;;;52.83;30.73;;;;;;;;;;4994454;28;20188;-53
2023/02/13 03:39:21;;;;;;;59.93;32.23;;;;;;;;;;4994455;28;20276;-55
2023/02/13 03:41:57;;;;;;;57.23;31.97;;;7.00;99.90;;;;;;4994400;28;20262;-53
2023/02/13 03:44:45;;;;;;;63.23;33.77;;;7.00;99.90;;;;;;4994242;28;20173;-55
2023/02/13 03:47:13;;;;;;;61.20;32.67;;;6.90;99.90;;;;;;4981619;28;20181;-54
2023/02/13 03:50:05;;;;;;;58.93;31.40;;;;;;;;;;4993428;28;20213;-53
2023/02/13 03:52:53;;;;;;;59.87;32.70;;;6.90;99.90;;;;;;4993214;28;20197;-56
2023/02/13 04:01:09;;;;;;;70.13;34.50;;;7.00;99.90;;;;;;4986682;28;20330;-53
2023/02/13 04:03:35;;;;;;;66.73;34.87;;;;;;;;;;4983584;28;20552;-53
2023/02/13 04:06:03;;;;;;;80.90;37.70;;;;;;;;;;4993106;28;20181;-53
2023/02/13 04:08:30;;;;;;;65.67;34.93;;;;;;;;;;4993230;28;20584;-54
2023/02/13 04:11:17;;;;;;;68.57;35.30;;;;;;;;;;4994086;28;20185;-54
2023/02/13 04:13:47;;;;;;;67.97;36.40;;;;;;;;;;4994177;28;20204;-54
2023/02/13 04:16:19;;;;;;;57.20;32.97;;;;;;;;;;4981426;28;20240;-53
2023/02/13 04:18:47;;;;;;;49.93;29.77;;;6.70;99.90;;;;;;4993341;28;20197;-55
2023/02/13 04:21:13;;;;;;;63.20;31.30;;;;;;;;;;4992824;28;20189;-54
2023/02/13 04:23:39;;;;;;;49.37;29.77;;;6.70;99.90;;;;;;4993419;28;20675;-53
2023/02/13 04:26:21;;;;;;;57.67;32.27;;;6.40;99.90;;;;;;4991544;28;20552;-55
2023/02/13 04:28:47;;;;;;;51.23;29.20;;;;;;;;;;4990618;28;20200;-53
2023/02/13 04:31:13;;;;;;;46.53;27.73;;;;;;;;;;4993277;28;20182;-55
2023/02/13 04:33:39;;;;;;;50.10;28.37;;;6.50;99.90;;;;;;4993675;28;20644;-54
2023/02/13 04:36:05;;;;;;;37.93;24.83;;;;;;;;;;4993215;28;20181;-58
2023/02/13 04:38:31;;;;;;;39.43;25.50;;;;;;;;;;4992571;28;20197;-58
2023/02/13 04:40:57;;;;;;;44.43;25.97;;;6.50;99.90;;;;;;4992745;28;20181;-53
2023/02/13 04:43:22;;;;;;;38.73;24.50;;;6.20;99.90;;;;;;4992612;28;20213;-53
2023/02/13 04:45:49;;;;;;;38.33;23.80;;;6.30;99.90;;;;;;4992800;28;20208;-54
2023/02/13 04:48:15;;;;;;;46.37;26.93;;;;;;;;;;4992964;28;20641;-56
2023/02/13 04:50:40;;;;;;;45.23;26.53;;;6.50;99.90;;;;;;4993448;28;20220;-53
2023/02/13 04:53:06;;;;;;;38.10;23.97;;;6.30;99.90;;;;;;4993243;28;20703;-55
2023/02/13 04:55:32;;;;;;;36.83;24.00;;;;;;;;;;4992628;28;20190;-57
2023/02/13 04:57:58;;;;;;;38.23;24.40;;;;;;;;;;4992393;28;20259;-56
2023/02/13 05:00:25;;;;;;;34.20;23.53;;;;;;;;;;4991925;28;20216;-53
2023/02/13 05:02:51;;;;;;;30.83;20.90;;;5.80;99.90;;;;;;4992855;28;20217;-52
2023/02/13 05:05:17;;;;;;;30.37;21.53;;;5.40;99.90;;;;;;4992831;28;20177;-56
2023/02/13 05:07:45;;;;;;;28.27;19.37;;;5.30;99.90;;;;;;4992273;28;20184;-54
2023/02/13 05:10:11;;;;;;;28.83;20.53;;;5.60;99.90;;;;;;4990020;28;20209;-54
2023/02/13 05:12:37;;;;;;;27.50;19.40;;;5.00;99.90;;;;;;4991880;28;20193;-53
2023/02/13 05:15:03;;;;;;;27.77;19.40;;;;;;;;;;4991420;28;20199;-55
2023/02/13 05:17:29;;;;;;;24.80;18.80;;;;;;;;;;4986036;28;20193;-54
2023/02/13 05:19:55;;;;;;;26.53;19.40;;;;;;;;;;4991586;28;20208;-56
2023/02/13 05:25:06;;;;;;;24.77;18.27;;;;;;;;;;4973430;28;20216;-55
2023/02/13 05:27:32;;;;;;;23.93;17.83;;;;;;;;;;4985039;28;20189;-53
2023/02/13 05:29:58;;;;;;;22.60;17.30;;;;;;;;;;4990883;28;20201;-53
2023/02/13 05:32:23;;;;;;;25.53;18.97;;;5.10;99.90;;;;;;4991030;28;20260;-53
2023/02/13 05:34:49;;;;;;;22.97;17.63;;;;;;;;;;4992334;28;20177;-54
2023/02/13 05:37:15;;;;;;;23.10;17.17;;;4.80;99.90;;;;;;4991135;28;20287;-52
2023/02/13 05:39:40;;;;;;;21.93;17.50;;;5.00;99.90;;;;;;4992048;28;20201;-51
2023/02/13 05:42:06;;;;;;;24.73;18.53;;;5.10;99.90;;;;;;4991928;28;20209;-55
2023/02/13 05:44:32;;;;;;;22.27;17.20;;;;;;;;;;4991403;28;20181;-58
2023/02/13 05:46:58;;;;;;;22.27;17.57;;;;;;;;;;4991034;28;20185;-54
2023/02/13 05:49:24;;;;;;;24.50;18.57;;;;;;;;;;4991203;28;20209;-54
2023/02/13 05:51:51;;;;;;;21.53;17.33;;;5.20;99.90;;;;;;4991907;28;20182;-54
2023/02/13 05:54:17;;;;;;;22.70;17.83;;;;;;;;;;4992966;28;20200;-57
2023/02/13 05:56:43;;;;;;;22.13;17.57;;;;;;;;;;4991783;28;20181;-57
2023/02/13 05:59:09;;;;;;;21.47;17.37;;;;;;;;;;4991249;28;20728;-57
2023/02/13 06:01:35;;;;;;;22.87;18.50;;;;;;;;;;4990712;28;20205;-53
2023/02/13 06:04:01;;;;;;;21.67;17.30;;;;;;;;;;4990947;28;20277;-53
2023/02/13 06:06:26;;;;;;;20.37;16.47;;;5.40;99.90;;;;;;4991276;28;20181;-56
2023/02/13 06:08:52;;;;;;;21.13;17.03;;;5.60;99.90;;;;;;4991647;28;20208;-54
2023/02/13 06:11:18;;;;;;;20.67;16.97;;;;;;;;;;4991450;28;20177;-53
2023/02/13 06:13:44;;;;;;;19.50;15.93;;;;;;;;;;4991895;28;20180;-56
2023/02/13 06:16:10;;;;;;;21.43;17.00;;;5.40;99.90;;;;;;4991002;28;20177;-53
2023/02/13 06:18:37;;;;;;;21.27;16.67;;;5.60;99.90;;;;;;4990588;28;20274;-53
2023/02/13 06:21:04;;;;;;;23.67;18.17;;;;;;;;;;4983252;28;20174;-56
2023/02/13 06:23:30;;;;;;;21.70;16.67;;;;;;;;;;4991525;28;20188;-53
2023/02/13 06:25:56;;;;;;;22.23;18.10;;;;;;;;;;4990637;28;20276;-54
2023/02/13 06:28:22;;;;;;;20.67;16.23;;;;;;;;;;4991109;28;20644;-55
2023/02/13 06:30:48;;;;;;;21.53;16.83;;;;;;;;;;4991061;28;20169;-56
2023/02/13 06:33:14;;;;;;;20.30;16.03;;;;;;;;;;4989738;28;20185;-55
2023/02/13 06:35:40;;;;;;;23.10;17.73;;;;;;;;;;4989137;28;20193;-53
2023/02/13 06:38:06;;;;;;;21.17;16.77;;;5.30;99.90;;;;;;4986436;28;20181;-56
2023/02/13 06:40:31;;;;;;;21.40;16.67;;;5.40;99.90;;;;;;4991591;28;20233;-54
2023/02/13 06:42:57;;;;;;;22.47;17.93;;;;;;;;;;4988197;28;20200;-56
2023/02/13 06:45:23;;;;;;;23.43;17.87;;;;;;;;;;4979225;28;20736;-54
2023/02/13 06:47:50;;;;;;;23.23;17.73;;;;;;;;;;4970182;28;20649;-57
2023/02/13 06:50:16;;;;;;;26.30;20.77;;;5.80;99.90;;;;;;4987602;28;20339;-55
2023/02/13 06:52:47;;;;;;;23.67;18.60;;;5.50;99.90;;;;;;4987274;28;20223;-56
2023/02/13 06:55:13;;;;;;;23.23;18.87;;;;;;;;;;4989742;28;20203;-55
2023/02/13 06:57:39;;;;;;;26.63;19.70;;;;;;;;;;4991112;28;20320;-53
2023/02/13 07:00:12;;;;;;;25.57;19.30;;;;;;;;;;4995416;23;20320;-90
2023/02/13 07:02:38;;;;;;;24.90;19.13;;;;;;;;;;4995057;28;20215;-89
2023/02/13 07:05:03;;;;;;;23.33;18.03;;;;;;;;;;5032326;28;20175;-89
2023/02/13 07:07:32;;;;;;;23.43;18.60;;;;;;;;;;5033850;28;20175;-87
2023/02/13 07:09:58;;;;;;;26.30;18.70;;;;;;;;;;5016996;28;20199;-87
2023/02/13 07:12:24;;;;;;;25.27;18.80;;;;;;;;;;5017123;28;20505;-87
2023/02/13 07:14:50;;;;;;;26.03;20.17;;;;;;;;;;5034745;28;20183;-88
2023/02/13 07:17:16;;;;;;;26.63;19.23;;;;;;;;;;5034984;28;20175;-88
2023/02/13 07:19:42;;;;;;;26.67;19.53;;;;;;;;;;5016605;28;20180;-89
2023/02/13 07:22:08;;;;;;;27.37;20.10;;;;;;;;;;5016547;28;20196;-87
2023/02/13 07:24:37;;;;;;;23.97;18.53;;;;;;;;;;5016766;28;20183;-91
2023/02/13 07:27:04;;;;;;;26.67;19.63;;;;;;;;;;5017260;28;20271;-90
2023/02/13 07:29:30;;;;;;;25.93;20.30;;;;;;;;;;5018516;28;20697;-90
2023/02/13 07:31:56;;;;;;;30.03;21.03;;;;;;;;;;5017852;28;20171;-89
2023/02/13 07:34:22;;;;;;;28.03;20.13;;;;;;;;;;5017745;28;20259;-91
2023/02/13 07:36:48;;;;;;;28.57;20.93;;;;;;;;;;5016225;28;20168;-88
2023/02/13 07:39:14;;;;;;;29.50;21.27;;;;;;;;;;5016593;28;20172;-88
2023/02/13 07:41:40;;;;;;;31.43;22.17;;;;;;;;;;5033266;28;20269;-86
2023/02/13 07:44:07;;;;;;;28.33;23.23;;;;;;;;;;5016373;28;20780;-91
2023/02/13 07:46:33;;;;;;;30.87;21.97;;;;;;;;;;5015815;28;20168;-92
2023/02/13 07:48:59;;;;;;;27.90;21.17;;;;;;;;;;5014901;28;20172;-90
2023/02/13 07:51:25;;;;;;;32.47;22.83;;;;;;;;;;5020111;28;20199;-89
2023/02/13 07:53:52;;;;;;;28.80;20.53;;;;;;;;;;5021700;28;20175;-89
2023/02/13 07:56:18;;;;;;;32.90;22.03;;;;;;;;;;5021215;28;20172;-89
2023/02/13 07:58:44;;;;;;;43.60;26.07;;;;;;;;;;5019236;28;20190;-88
2023/02/13 08:01:11;;;;;;;42.20;25.03;;;;;;;;;;5018494;28;20191;-89
2023/02/13 08:03:37;;;;;;;39.97;24.57;;;;;;;;;;5016842;28;20176;-89
2023/02/13 08:06:04;;;;;;;38.20;23.73;;;;;;;;;;5034969;28;20176;-89
2023/02/13 08:08:30;;;;;;;38.40;24.23;;;;;;;;;;5018068;28;20187;-90
2023/02/13 08:13:42;;;;;;;43.93;26.07;;;;;;;;;;5034796;28;20191;-90
2023/02/13 08:16:08;;;;;;;49.53;27.30;;;;;;;;;;5016489;28;20638;-88
2023/02/13 08:18:34;;;;;;;48.23;26.80;;;;;;;;;;5016688;28;20259;-91
2023/02/13 08:21:03;;;;;;;39.33;24.87;;;;;;;;;;5017161;28;20171;-89
2023/02/13 08:23:29;;;;;;;48.30;28.13;;;;;;;;;;5034793;28;20749;-91
2023/02/13 08:25:58;;;;;;;42.47;26.13;;;;;;;;;;5020997;28;20222;-90
2023/02/13 08:28:24;;;;;;;38.60;24.40;;;;;;;;;;5025513;28;20274;-89
2023/02/13 08:30:50;;;;;;;42.33;25.10;;;;;;;;;;5016708;28;20203;-89
2023/02/13 08:33:16;;;;;;;36.67;24.00;;;;;;;;;;5016750;28;20187;-89
2023/02/13 08:35:42;;;;;;;38.47;23.07;;;;;;;;;;5018785;28;20233;-90
2023/02/13 08:38:08;;;;;;;36.30;23.80;;;;;;;;;;5018267;28;20188;-89
2023/02/13 08:40:34;;;;;;;36.77;24.50;;;;;;;;;;5017324;28;20180;-88
2023/02/13 08:43:01;;;;;;;34.83;23.23;;;;;;;;;;5015728;28;20272;-89
2023/02/13 08:45:27;;;;;;;34.53;23.87;;;;;;;;;;5015949;28;20226;-89
2023/02/13 08:47:57;;;;;;;34.17;22.37;;;;;;;;;;5015717;28;20242;-88
2023/02/13 08:50:23;;;;;;;34.67;23.23;;;;;;;;;;5015850;28;20183;-89
2023/02/13 08:52:50;;;;;;;36.23;23.73;;;;;;;;;;5016194;28;20190;-89
2023/02/13 08:55:16;;;;;;;34.80;23.17;;;;;;;;;;5014815;28;20183;-89
2023/02/13 08:57:42;;;;;;;36.20;24.87;;;;;;;;;;5015745;28;20203;-90
2023/02/13 09:00:08;;;;;;;35.97;23.47;;;;;;;;;;5015400;28;20624;-89
2023/02/13 09:02:34;;;;;;;32.67;22.80;;;;;;;;;;5014810;28;20302;-88
2023/02/13 09:05:00;;;;;;;37.73;23.27;;;;;;;;;;5020808;28;20604;-90
2023/02/13 09:07:26;;;;;;;34.37;23.20;;;;;;;;;;5033555;28;20175;-88
2023/02/13 09:09:52;;;;;;;36.30;24.17;;;;;;;;;;5015003;28;20179;-88
2023/02/13 09:12:18;;;;;;;32.47;22.23;;;;;;;;;;5015147;28;20183;-88
2023/02/13 09:14:44;;;;;;;32.20;22.20;;;;;;;;;;5022117;28;20278;-89
2023/02/13 09:17:10;;;;;;;31.27;20.87;;;;;;;;;;5039852;28;20179;-89
2023/02/13 09:19:36;;;;;;;29.33;19.83;;;;;;;;;;5016951;28;20180;-90
2023/02/13 09:22:02;;;;;;;30.07;22.43;;;;;;;;;;5023858;28;20269;-89
2023/02/13 09:24:28;;;;;;;29.47;20.80;;;;;;;;;;5007803;28;20175;-89
2023/02/13 09:26:55;;;;;;;29.37;20.50;;;;;;;;;;5023525;28;20172;-88
2023/02/13 09:29:22;;;;;;;30.30;21.63;;;;;;;;;;5020348;28;22060;-90
2023/02/13 09:31:48;;;;;;;28.63;21.17;;;;;;;;;;5017373;28;20571;-90
2023/02/13 09:34:14;;;;;;;27.77;20.43;;;;;;;;;;5015210;28;20176;-90
2023/02/13 09:36:40;;;;;;;29.10;20.33;;;;;;;;;;5017033;28;20176;-89
2023/02/13 09:39:09;;;;;;;31.47;22.40;;;;;;;;;;5023208;28;20318;-89
2023/02/13 09:41:42;;;;;;;31.53;21.57;;;;;;;;;;5015514;28;20204;-91
2023/02/13 09:44:32;;;;;;;31.40;21.60;;;;;;;;;;5015174;28;20623;-91
2023/02/13 09:46:59;;;;;;;29.77;21.47;;;;;;;;;;5015412;28;20172;-88
2023/02/13 09:49:27;;;;;;;30.33;21.87;;;;;;;;;;5017773;28;20262;-89
2023/02/13 09:51:55;;;;;;;32.23;23.23;;;;;;;;;;5014926;28;20608;-88
2023/02/13 09:54:21;;;;;;;30.07;20.30;;;;;;;;;;4971270;28;20182;-91
2023/02/13 09:57:01;;;;;;;28.43;22.37;;;;;;;;;;4955941;28;20185;-90
2023/02/13 09:59:42;;;;;;;31.80;23.17;;;;;;;;;;4959737;28;20189;-89
2023/02/13 10:02:17;;;;;;;31.47;22.80;;;;;;;;;;4975776;28;20598;-90
2023/02/13 10:04:46;;;;;;;30.37;22.83;;;;;;;;;;4955695;28;20664;-90
2023/02/13 10:07:20;;;;;;;31.13;22.07;;;;;;;;;;4962916;28;20638;-91
2023/02/13 10:09:56;;;;;;;29.90;22.53;;;;;;;;;;4955133;28;20190;-89
2023/02/13 10:12:28;;;;;;;29.70;22.20;;;;;;;;;;4954989;28;20188;-89
2023/02/13 10:15:32;;;;;;;31.70;22.97;;;;;;;;;;4953591;28;20337;-89
2023/02/13 10:17:59;;;;;;;31.60;23.17;;;;;;;;;;4909377;29;20258;-88
2023/02/13 10:20:34;;;;;;;30.50;22.80;;;;;;;;;;4898414;29;20656;-87
2023/02/13 10:23:08;;;;;;;30.17;22.47;;;;;;;;;;4913300;29;20729;-88
2023/02/13 10:25:54;;;;;;;29.80;21.80;;;;;;;;;;4913074;29;20277;-88
2023/02/13 10:28:31;;;;;;;30.67;22.03;;;;;;;;;;4951430;28;20186;-88
2023/02/13 10:31:02;;;;;;;29.43;22.30;;;;;;;;;;4955600;28;20614;-88
2023/02/13 10:33:31;;;;;;;31.63;23.10;;;;;;;;;;4939186;29;20583;-90
2023/02/13 10:35:57;;;;;;;30.53;23.20;;;;;;;;;;4951826;28;20190;-88
2023/02/13 10:38:24;;;;;;;27.80;21.33;;;;;;;;;;4951567;28;20772;-89
2023/02/13 10:41:08;;;;;;;30.77;24.13;;;;;;;;;;4941669;29;20885;-88
2023/02/13 10:44:00;;;;;;;28.83;21.17;;;;;;;;;;4955632;29;20214;-88
2023/02/13 10:46:46;;;;;;;30.37;22.77;;;;;;;;;;4863366;29;20650;-86
2023/02/13 10:49:23;;;;;;;31.33;23.43;;;;;;;;;;4923969;29;20276;-86
2023/02/13 10:51:59;;;;;;;28.97;22.00;;;;;;;;;;4939245;29;20204;-88
2023/02/13 10:54:28;;;;;;;29.77;22.00;;;;;;;;;;4921173;29;20751;-88
2023/02/13 10:56:58;;;;;;;27.30;21.50;;;;;;;;;;4932342;29;20207;-87
2023/02/13 10:59:27;;;;;;;30.50;21.57;;;;;;;;;;4934842;29;20628;-87
2023/02/13 11:01:55;;;;;;;26.90;20.50;;;;;;;;;;4920020;29;20219;-90
2023/02/13 11:04:22;;;;;;;25.87;20.37;;;;;;;;;;4922081;29;20304;-87
2023/02/13 11:07:01;;;;;;;25.73;20.23;;;;;;;;;;4927335;29;20534;-87
2023/02/13 11:09:27;;;;;;;26.73;20.83;;;;;;;;;;4937232;29;20182;-88
2023/02/13 11:11:54;;;;;;;27.83;21.33;;;;;;;;;;4937116;29;20194;-89
2023/02/13 11:14:21;;;;;;;28.20;21.77;;;;;;;;;;4934235;29;20632;-88
2023/02/13 11:16:47;;;;;;;27.77;21.33;;;;;;;;;;4934682;29;20195;-87
2023/02/13 11:19:17;;;;;;;26.07;19.87;;;;;;;;;;4935429;29;20669;-87
2023/02/13 11:21:44;;;;;;;26.10;20.67;;;;;;;;;;4938770;29;20297;-88
2023/02/13 11:24:18;;;;;;;23.83;18.90;;;;;;;;;;5025577;28;20272;-90
2023/02/13 11:26:45;;;;;;;24.43;19.17;;;;;;;;;;5017662;28;20182;-88
2023/02/13 11:29:20;;;;;;;27.27;19.87;;;;;;;;;;5017693;28;20177;-90
2023/02/13 11:31:46;;;;;;;26.67;20.57;;;;;;;;;;5040601;28;20183;-88
2023/02/13 11:34:24;;;;;;;25.17;19.20;;;;;;;;;;5022254;28;20172;-87
2023/02/13 11:37:06;;;;;;;23.33;18.63;;;;;;;;;;5017628;28;20620;-89
2023/02/13 11:39:32;;;;;;;23.80;19.47;;;;;;;;;;5035365;28;20717;-88
2023/02/13 11:41:58;;;;;;;24.43;19.03;;;;;;;;;;5021809;28;20234;-90
2023/02/13 11:44:25;;;;;;;25.33;20.17;;;;;;;;;;5034974;28;20180;-87
2023/02/13 11:46:52;;;;;;;30.17;21.67;;;;;;;;;;5016851;28;20179;-87
2023/02/13 11:49:22;;;;;;;25.87;21.23;;;;;;;;;;5016574;28;20199;-87
2023/02/13 11:51:49;;;;;;;26.80;21.30;;;;;;;;;;5016261;28;20195;-87
2023/02/13 11:54:24;;;;;;;27.20;20.80;;;;;;;;;;5040489;28;20241;-86
2023/02/13 11:56:52;;;;;;;24.47;19.63;;;;;;;;;;5018112;28;20175;-88
2023/02/13 11:59:21;;;;;;;25.20;19.27;;;;;;;;;;5022318;28;20516;-86
2023/02/13 12:01:49;;;;;;;25.23;19.97;;;;;;;;;;5033803;28;20678;-85
2023/02/13 12:04:21;;;;;;;23.13;18.53;;;;;;;;;;5033950;28;20172;-86
2023/02/13 12:06:58;;;;;;;22.60;18.17;;;;;;;;;;5021706;28;20183;-86
2023/02/13 12:09:24;;;;;;;24.30;19.37;;;;;;;;;;5034087;28;20341;-86
2023/02/13 12:11:51;;;;;;;26.37;19.90;;;;;;;;;;5016371;28;20642;-87
2023/02/13 12:14:22;;;;;;;24.37;19.13;;;;;;;;;;5015841;28;20539;-87
2023/02/13 12:16:50;;;;;;;26.93;20.60;;;;;;;;;;5024322;28;20168;-86
2023/02/13 12:19:23;;;;;;;23.67;18.43;;;;;;;;;;5016075;28;20317;-86
2023/02/13 12:22:13;;;;;;;24.13;19.53;;;;;;;;;;5033770;28;20207;-85
2023/02/13 12:24:45;;;;;;;25.43;19.87;;;;;;;;;;5008880;28;20180;-85
2023/02/13 12:27:20;;;;;;;23.60;19.17;;;;;;;;;;5015706;28;20416;-85
2023/02/13 12:29:58;;;;;;;27.33;21.77;;;;;;;;;;5033469;28;20171;-86
2023/02/13 12:32:40;;;;;;;25.50;20.50;;;;;;;;;;5015564;28;20389;-86
2023/02/13 12:35:15;;;;;;;28.33;21.73;;;;;;;;;;5033069;28;20171;-86
2023/02/13 12:37:50;;;;;;;26.80;21.00;;;;;;;;;;5033048;28;20178;-86
2023/02/13 12:40:34;;;;;;;28.43;22.13;;;;;;;;;;5015674;28;20167;-87
2023/02/13 12:43:03;;;;;;;25.10;20.40;;;;;;;;;;5018415;28;20758;-87
2023/02/13 12:45:41;;;;;;;24.40;19.33;;;;;;;;;;5016641;28;20172;-85
2023/02/13 12:48:19;;;;;;;24.50;18.70;;;;;;;;;;5015518;28;20229;-86
2023/02/13 12:50:56;;;;;;;26.30;20.20;;;;;;;;;;5033636;28;20203;-86
2023/02/13 12:53:28;;;;;;;24.87;19.40;;;;;;;;;;5019170;28;20181;-85
2023/02/13 12:56:20;;;;;;;24.17;18.87;;;;;;;;;;5015308;28;20590;-87
2023/02/13 12:58:55;;;;;;;25.60;20.33;;;;;;;;;;4936772;29;20212;-85
2023/02/13 13:01:33;;;;;;;23.73;19.50;;;;;;;;;;4942158;29;20635;-86
2023/02/13 13:04:13;;;;;;;25.63;20.23;;;8.20;99.90;;;;;;4952394;28;20256;-86
2023/02/13 13:06:45;;;;;;;26.83;20.30;;;;;;;;;;4936365;29;20178;-85
2023/02/13 13:09:11;;;;;;;23.20;18.67;;;;;;;;;;4939900;29;20194;-86
2023/02/13 13:11:42;;;;;;;24.87;19.37;;;8.30;99.90;;;;;;4943826;29;20174;-87
2023/02/13 13:14:20;;;;;;;27.47;20.20;;;8.40;99.90;;;;;;4943217;29;20269;-86
2023/02/13 13:17:29;;;;;;;23.77;19.03;;;8.50;99.90;;;;;;4936377;29;20186;-85
2023/02/13 13:20:07;;;;;;;24.37;19.50;;;8.30;99.90;;;;;;4936318;29;20186;-87
2023/02/13 13:22:38;;;;;;;26.00;20.67;;;8.60;99.90;;;;;;4937323;28;20224;-86
2023/02/13 13:25:17;;;;;;;23.70;19.73;;;8.50;99.90;;;;;;4936650;29;20178;-85
2023/02/13 13:27:46;;;;;;;24.37;19.80;;;8.40;99.90;;;;;;4952191;29;20178;-86
2023/02/13 13:30:23;;;;;;;25.53;19.70;;;7.10;99.90;;;;;;4952229;29;20186;-88
2023/02/13 13:33:21;;;;;;;25.57;20.97;;;8.60;99.90;;;;;;4952957;28;20229;-86
2023/02/13 13:36:30;;;;;;;22.40;18.43;;;8.60;99.90;;;;;;4987214;28;20631;-85
2023/02/13 13:38:56;;;;;;;25.47;19.83;;;;;;;;;;5008727;28;20178;-86
2023/02/13 13:41:54;;;;;;;23.50;19.10;;;8.50;99.90;;;;;;5014650;28;20516;-87
2023/02/13 13:44:50;;;;;;;24.47;19.10;;;8.60;99.90;;;;;;5032781;28;20167;-86
2023/02/13 13:47:59;;;;;;;25.53;20.50;;;8.40;99.90;;;;;;5014662;28;20172;-86
2023/02/13 13:50:28;;;;;;;24.23;19.47;;;8.50;99.90;;;;;;5032410;28;20175;-86
2023/02/13 13:53:14;;;;;;;26.47;20.90;;;8.50;99.90;;;;;;5032729;28;20237;-86
2023/02/13 13:55:48;;;;;;;25.70;20.43;;;8.70;99.90;;;;;;5014337;28;20211;-87
2023/02/13 13:58:38;;;;;;;24.20;20.07;;;8.60;99.90;;;;;;5014314;28;20638;-86
2023/02/13 14:01:23;;;;;;;24.63;19.40;;;8.80;99.90;;;;;;5032071;28;20192;-86
2023/02/13 14:03:58;;;;;;;26.37;20.00;;;8.70;99.90;;;;;;5014353;28;20190;-85
2023/02/13 14:06:39;;;;;;;25.37;20.47;;;;;;;;;;5031867;28;20258;-85
2023/02/13 14:09:05;;;;;;;25.63;19.73;;;;;;;;;;5031991;28;20179;-87
2023/02/13 14:11:37;;;;;;;24.47;19.37;;;8.90;99.90;;;;;;5032145;28;20176;-86
2023/02/13 14:14:26;;;;;;;26.13;20.67;;;9.00;99.90;;;;;;5014457;28;20171;-86
2023/02/13 14:16:52;;;;;;;25.10;20.57;;;;;;;;;;5009918;28;20179;-86
2023/02/13 14:19:30;;;;;;;25.13;19.87;;;8.70;99.90;;;;;;5017603;28;20262;-85
2023/02/13 14:22:14;;;;;;;25.43;20.03;;;;;;;;;;5032931;28;20287;-88
2023/02/13 14:24:40;;;;;;;24.73;20.23;;;;;;;;;;5015257;28;20592;-85
2023/02/13 14:27:21;;;;;;;29.80;23.67;;;8.50;99.90;;;;;;5015059;28;20172;-86
2023/02/13 14:29:47;;;;;;;26.87;21.20;;;;;;;;;;5036764;28;20165;-84
2023/02/13 14:32:27;;;;;;;24.90;19.33;;;8.60;99.90;;;;;;5030976;28;20192;-85
2023/02/13 14:34:56;;;;;;;26.07;19.30;;;8.70;99.90;;;;;;5039931;28;20182;-87
2023/02/13 14:37:35;;;;;;;24.03;19.30;;;8.60;99.90;;;;;;5028662;28;20181;-87
2023/02/13 14:40:14;;;;;;;25.67;19.97;;;;;;;;;;5030608;28;20172;-86
2023/02/13 14:42:42;;;;;;;23.13;18.67;;;8.70;99.90;;;;;;5031674;28;20551;-86
2023/02/13 14:45:19;;;;;;;27.73;20.37;;;;;;;;;;5014352;28;20172;-87